Time;durP1;ratioP1;P1;durP2;ratioP2;P2;SDS_P1;SDS_P2;PMS_P1;PMS_P2;Temp;Humidity;BMP_temperature;BMP_pressure;BME280_temperature;BME280_humidity;BME280_pressure;Samples;Min_cycle;Max_cycle;Signal;HPM_P1;HPM_P2
2023/12/04 00:00:03;;;;;;;7.87;3.20;;;;;;;4.38;52.64;100924.69;675167;29;1567;-85
2023/12/04 00:00:33;;;;;;;8.07;2.80;;;;;;;4.44;52.60;100942.22;671987;29;1511;-85
2023/12/04 00:00:53;;;;;;;7.10;3.50;;;;;;;4.43;52.76;100935.25;672665;29;1653;-85
2023/12/04 00:01:15;;;;;;;7.60;3.63;;;;;;;4.45;52.62;100929.38;666903;29;1400;-85
2023/12/04 00:01:45;;;;;;;9.70;4.20;;;;;;;4.53;52.42;100942.72;669082;29;754;-85
2023/12/04 00:02:05;;;;;;;7.93;4.00;;;;;;;4.49;52.83;100936.47;666806;29;1500;-85
2023/12/04 00:02:26;;;;;;;5.63;4.00;;;;;;;4.49;52.56;100933.03;669679;29;1221;-85
2023/12/04 00:02:47;;;;;;;6.45;3.97;;;;;;;4.47;52.73;100926.91;668648;29;1625;-85
2023/12/04 00:03:08;;;;;;;5.78;3.55;;;;;;;4.48;52.33;100928.66;669401;29;1491;-85
2023/12/04 00:03:28;;;;;;;7.60;3.63;;;;;;;4.47;52.84;100932.06;666897;29;951;-84
2023/12/04 00:03:54;;;;;;;7.57;3.90;;;;;;;4.52;52.75;100925.44;668667;29;1595;-84
2023/12/04 00:04:15;;;;;;;7.45;3.70;;;;;;;4.53;52.64;100927.22;671484;29;1470;-85
2023/12/04 00:04:36;;;;;;;5.77;3.43;;;;;;;4.44;52.67;100918.94;674584;29;1102;-84
2023/12/04 00:05:01;;;;;;;4.88;2.92;;;;;;;4.43;52.44;100914.59;673840;29;1612;-85
2023/12/04 00:05:22;;;;;;;3.05;2.78;;;;;;;4.45;52.71;100912.97;675738;29;1134;-85
2023/12/04 00:05:44;;;;;;;3.08;2.85;;;;;;;4.46;52.50;100914.75;671962;29;1255;-85
2023/12/04 00:06:05;;;;;;;4.40;3.17;;;;;;;4.51;52.94;100924.56;671768;29;1618;-85
2023/12/04 00:06:26;;;;;;;5.15;3.33;;;;;;;4.48;52.62;100910.56;668591;29;1355;-84
2023/12/04 00:06:46;;;;;;;5.63;3.50;;;;;;;4.44;52.45;100903.44;669589;29;801;-84
2023/12/04 00:07:07;;;;;;;7.47;3.67;;;;;;;4.52;52.45;100915.09;666238;29;1291;-84
2023/12/04 00:07:27;;;;;;;7.47;3.72;;;;;;;4.48;52.27;100913.16;666788;29;1350;-85
2023/12/04 00:07:48;;;;;;;7.47;3.90;;;;;;;4.52;52.70;100915.09;666836;29;1575;-85
2023/12/04 00:08:08;;;;;;;5.38;3.90;;;;;;;4.44;52.65;100911.19;667161;29;1025;-84
2023/12/04 00:08:30;;;;;;;5.35;3.85;;;;;;;4.44;52.76;100906.03;669377;29;1276;-84
2023/12/04 00:08:51;;;;;;;5.60;3.60;;;;;;;4.43;52.81;100906.84;667857;29;1623;-85
2023/12/04 00:09:12;;;;;;;6.50;3.70;;;;;;;4.44;52.78;100906.03;667001;29;1554;-85
2023/12/04 00:09:32;;;;;;;6.53;4.13;;;;;;;4.41;52.66;100903.28;669411;29;1053;-84
2023/12/04 00:09:53;;;;;;;7.18;4.28;;;;;;;4.46;52.74;100907.00;669438;29;1474;-85
2023/12/04 00:10:14;;;;;;;7.88;4.45;;;;;;;4.42;52.99;100907.66;669662;29;1016;-85
2023/12/04 00:10:34;;;;;;;7.30;3.92;;;;;;;4.41;52.45;100906.75;669538;29;986;-85
2023/12/04 00:10:55;;;;;;;7.40;4.03;;;;;;;4.38;52.73;100897.13;669241;29;1510;-85
2023/12/04 00:11:15;;;;;;;7.35;4.10;;;;;;;4.43;52.77;100909.44;671999;29;1103;-85
2023/12/04 00:11:36;;;;;;;7.50;4.20;;;;;;;4.48;52.63;100913.16;672064;29;1530;-84
2023/12/04 00:11:57;;;;;;;6.68;3.75;;;;;;;4.44;52.73;100900.88;669156;29;1494;-84
2023/12/04 00:12:18;;;;;;;6.78;4.10;;;;;;;4.41;52.84;100901.56;671712;29;1587;-84
2023/12/04 00:12:39;;;;;;;5.72;3.78;;;;;;;4.42;52.61;100903.34;669298;29;1438;-85
2023/12/04 00:13:00;;;;;;;6.68;3.80;;;;;;;4.46;52.92;100907.00;669602;29;1598;-85
2023/12/04 00:13:20;;;;;;;6.80;3.80;;;;;;;4.46;52.67;100909.59;674151;29;1004;-84
2023/12/04 00:13:41;;;;;;;7.28;4.07;;;;;;;4.46;52.89;100907.00;671980;29;1943;-84
2023/12/04 00:14:01;;;;;;;6.25;4.00;;;;;;;4.41;52.61;100898.13;669287;29;1487;-85
2023/12/04 00:14:22;;;;;;;10.60;3.90;;;;;;;4.46;52.96;100905.31;674519;29;1197;-84
2023/12/04 00:14:43;;;;;;;12.02;3.70;;;;;;;4.43;52.86;100907.75;672030;29;1203;-85
2023/12/04 00:15:05;;;;;;;12.20;3.80;;;;;;;4.35;52.95;100899.56;669507;29;1503;-84
2023/12/04 00:15:25;;;;;;;8.05;3.30;;;;;;;4.38;52.74;100909.16;666880;29;1198;-85
2023/12/04 00:15:46;;;;;;;8.10;3.78;;;;;;;4.35;53.13;100902.13;665526;29;1433;-85
2023/12/04 00:16:07;;;;;;;8.77;3.70;;;;;;;4.43;52.81;100910.31;670815;29;1478;-84
2023/12/04 00:16:28;;;;;;;8.20;3.78;;;;;;;4.38;52.91;100902.28;671824;29;1003;-84
2023/12/04 00:16:49;;;;;;;6.03;3.63;;;;;;;4.44;53.02;100904.34;670087;29;1574;-84
2023/12/04 00:17:09;;;;;;;6.00;3.85;;;;;;;4.43;52.82;100899.09;666521;29;1197;-84
2023/12/04 00:17:30;;;;;;;5.15;3.80;;;;;;;4.44;53.20;100903.44;664116;29;1365;-84
2023/12/04 00:17:51;;;;;;;3.80;3.40;;;;;;;4.42;53.01;100894.72;667280;29;1645;-84
2023/12/04 00:18:12;;;;;;;3.67;3.38;;;;;;;4.48;52.86;100913.16;671801;29;1485;-84
2023/12/04 00:18:33;;;;;;;3.47;3.17;;;;;;;4.43;52.84;100900.00;669485;29;1159;-85
2023/12/04 00:18:54;;;;;;;5.55;3.40;;;;;;;4.43;52.73;100894.81;669511;29;1512;-84
2023/12/04 00:19:14;;;;;;;6.28;3.33;;;;;;;4.50;53.04;100908.97;671946;29;1172;-84
2023/12/04 00:19:35;;;;;;;7.93;3.75;;;;;;;4.44;52.96;100903.44;667055;29;1189;-84
2023/12/04 00:19:55;;;;;;;5.57;3.60;;;;;;;4.44;52.92;100909.53;671819;29;1633;-84
2023/12/04 00:20:16;;;;;;;5.70;3.70;;;;;;;4.45;52.87;100900.06;669362;29;1204;-85
2023/12/04 00:20:37;;;;;;;5.13;3.25;;;;;;;4.45;53.09;100902.63;673901;29;1238;-84
2023/12/04 00:20:58;;;;;;;7.40;3.67;;;;;;;4.50;52.84;100907.25;672903;29;1507;-84
2023/12/04 00:21:18;;;;;;;7.30;3.80;;;;;;;4.46;52.70;100899.25;671942;29;1087;-85
2023/12/04 00:21:39;;;;;;;6.70;4.00;;;;;;;4.46;52.85;100905.31;671494;29;1315;-85
2023/12/04 00:22:12;;;;;;;6.65;4.20;;;;;;;4.54;53.12;100913.47;667872;29;1610;-84
2023/12/04 00:22:33;;;;;;;7.82;4.40;;;;;;;4.54;52.92;100907.44;673596;29;1268;-84
2023/12/04 00:22:54;;;;;;;6.90;4.00;;;;;;;4.50;53.19;100901.22;671232;29;1527;-85
2023/12/04 00:23:15;;;;;;;7.38;3.72;;;;;;;4.47;52.85;100893.31;669420;29;1207;-84
2023/12/04 00:23:36;;;;;;;6.65;3.25;;;;;;;4.50;52.78;100896.03;671994;29;1227;-84
2023/12/04 00:23:57;;;;;;;7.10;3.50;;;;;;;4.55;52.69;100904.94;672910;29;1616;-84
2023/12/04 00:24:18;;;;;;;5.90;3.75;;;;;;;4.53;53.02;100901.38;667513;29;1596;-84
2023/12/04 00:24:38;;;;;;;7.25;4.57;;;;;;;4.49;53.00;100894.25;675911;29;1299;-84
2023/12/04 00:24:59;;;;;;;6.70;4.63;;;;;;;4.54;52.92;100903.13;671648;29;1529;-85
2023/12/04 00:25:20;;;;;;;5.70;4.30;;;;;;;4.56;53.03;100906.72;674262;29;1383;-85
2023/12/04 00:25:40;;;;;;;5.28;3.70;;;;;;;4.51;53.00;100898.72;674669;29;836;-85
2023/12/04 00:26:02;;;;;;;7.70;4.03;;;;;;;4.59;53.18;100909.47;674204;29;1584;-85
2023/12/04 00:26:23;;;;;;;8.30;4.20;;;;;;;4.58;52.91;100899.94;670928;29;1273;-85
2023/12/04 00:26:43;;;;;;;9.10;4.60;;;;;;;4.59;52.98;100904.28;674687;29;805;-84
2023/12/04 00:27:04;;;;;;;6.15;3.92;;;;;;;4.53;53.12;100896.19;671815;29;1586;-84
2023/12/04 00:27:26;;;;;;;5.15;3.38;;;;;;;4.61;53.27;100905.25;671315;29;1358;-85
2023/12/04 00:27:47;;;;;;;4.50;3.70;;;;;;;4.52;52.91;100886.66;674713;29;824;-84
2023/12/04 00:28:08;;;;;;;5.45;4.32;;;;;;;4.57;53.09;100895.56;669621;29;1242;-84
2023/12/04 00:28:28;;;;;;;6.13;4.63;;;;;;;4.60;52.74;100903.47;669472;29;1028;-85
2023/12/04 00:28:49;;;;;;;7.33;4.00;;;;;;;4.59;52.94;100912.03;666782;29;1607;-84
2023/12/04 00:29:09;;;;;;;10.02;3.95;;;;;;;4.59;52.94;100896.53;669462;29;1013;-84
2023/12/04 00:29:30;;;;;;;10.40;3.90;;;;;;;4.56;53.11;100900.66;665806;29;1195;-85
2023/12/04 00:29:50;;;;;;;8.75;4.07;;;;;;;4.55;53.09;100897.19;666685;29;1575;-84
2023/12/04 00:30:11;;;;;;;6.38;4.32;;;;;;;4.55;53.05;100894.59;666885;29;1077;-84
2023/12/04 00:30:32;;;;;;;10.60;4.68;;;;;;;4.57;53.17;100898.16;668597;29;1531;-84
2023/12/04 00:30:53;;;;;;;13.15;4.60;;;;;;;4.57;52.79;100898.16;667461;29;1573;-84
2023/12/04 00:31:14;;;;;;;16.10;4.63;;;;;;;4.56;52.92;100895.47;668137;29;993;-85
2023/12/04 00:31:34;;;;;;;11.17;4.60;;;;;;;4.56;53.28;100891.22;669769;29;952;-85
2023/12/04 00:31:56;;;;;;;18.30;4.88;;;;;;;4.57;53.03;100892.97;671734;29;1550;-85
2023/12/04 00:32:17;;;;;;;15.52;4.50;;;;;;;4.60;53.28;100903.47;671817;29;1505;-84
2023/12/04 00:35:00;;;;;;;7.85;4.55;;;;;;;4.61;53.06;100889.75;676884;29;701;-84
2023/12/04 00:35:21;;;;;;;6.97;4.18;;;;;;;4.59;52.98;100890.50;671971;29;1476;-85
2023/12/04 00:35:43;;;;;;;7.38;3.78;;;;;;;4.60;52.99;100887.09;669444;29;1382;-84
2023/12/04 00:36:04;;;;;;;7.38;3.60;;;;;;;4.59;52.91;100881.03;669134;29;1514;-85
2023/12/04 00:36:25;;;;;;;7.13;3.83;;;;;;;4.58;52.95;100883.50;668925;29;1266;-84
2023/12/04 00:36:46;;;;;;;5.80;4.03;;;;;;;4.56;53.13;100886.03;669494;29;749;-84
2023/12/04 00:37:06;;;;;;;5.15;4.05;;;;;;;4.52;53.08;100884.06;668640;29;1520;-84
2023/12/04 00:37:27;;;;;;;4.63;4.10;;;;;;;4.55;53.27;100879.09;669244;29;996;-84
2023/12/04 00:37:48;;;;;;;4.53;3.88;;;;;;;4.58;52.92;100883.50;666586;29;1069;-84
2023/12/04 00:38:08;;;;;;;4.30;3.60;;;;;;;4.52;53.45;100873.75;669037;29;2005;-84
2023/12/04 00:38:29;;;;;;;4.32;3.20;;;;;;;4.56;53.30;100883.47;669356;29;1264;-84
2023/12/04 00:38:50;;;;;;;5.25;3.25;;;;;;;4.54;53.14;100879.88;669166;29;1609;-84
2023/12/04 00:39:11;;;;;;;5.78;3.88;;;;;;;4.52;53.22;100878.91;671769;29;1214;-84
2023/12/04 00:39:31;;;;;;;5.10;3.70;;;;;;;4.59;53.25;100880.16;669340;29;1136;-84
2023/12/04 00:39:52;;;;;;;5.90;4.13;;;;;;;4.56;53.17;100867.94;671883;29;1518;-84
2023/12/04 00:40:12;;;;;;;6.53;4.40;;;;;;;4.61;53.25;100879.41;674631;29;1115;-84
2023/12/04 00:40:33;;;;;;;9.00;4.60;;;;;;;4.51;53.24;100878.03;669337;29;1043;-84
2023/12/04 00:40:53;;;;;;;8.23;4.32;;;;;;;4.50;53.38;100875.38;668556;29;1592;-85
2023/12/04 00:41:15;;;;;;;8.80;4.00;;;;;;;4.57;53.23;100884.31;670571;29;1285;-84
2023/12/04 00:41:36;;;;;;;7.53;4.20;;;;;;;4.53;53.05;100885.84;671946;29;1243;-84
2023/12/04 00:41:57;;;;;;;7.00;4.17;;;;;;;4.52;53.13;100881.50;675479;29;1477;-84
2023/12/04 00:42:17;;;;;;;6.60;4.35;;;;;;;4.45;53.01;100871.63;672512;29;1213;-84
2023/12/04 00:42:38;;;;;;;6.28;4.30;;;;;;;4.51;52.88;100877.13;669962;29;1583;-85
2023/12/04 00:42:58;;;;;;;6.75;4.57;;;;;;;4.51;53.23;100882.31;672709;29;1733;-84
2023/12/04 00:43:19;;;;;;;6.87;4.63;;;;;;;4.50;53.30;100873.66;666727;29;1208;-84
2023/12/04 00:43:40;;;;;;;5.50;4.20;;;;;;;4.51;53.52;100884.88;669627;29;904;-84
2023/12/04 00:44:00;;;;;;;5.20;4.13;;;;;;;4.43;53.29;100868.06;668999;29;1478;-85
2023/12/04 00:44:21;;;;;;;5.37;4.33;;;;;;;4.50;53.11;100876.22;670631;29;1245;-84
2023/12/04 00:44:41;;;;;;;7.03;4.80;;;;;;;4.46;53.29;100869.13;673978;29;1709;-84
2023/12/04 00:45:03;;;;;;;6.45;4.53;;;;;;;4.48;53.21;100882.16;666640;29;1579;-84
2023/12/04 00:45:24;;;;;;;7.68;4.60;;;;;;;4.48;53.57;100876.97;671952;29;1120;-84
2023/12/04 00:45:44;;;;;;;6.97;4.38;;;;;;;4.44;53.33;100873.34;669017;29;1327;-84
2023/12/04 00:46:05;;;;;;;8.38;5.07;;;;;;;4.47;53.42;100876.06;668970;29;1488;-84
2023/12/04 00:46:26;;;;;;;6.40;4.55;;;;;;;4.51;53.60;100888.38;669335;29;1002;-84
2023/12/04 00:46:47;;;;;;;6.20;4.20;;;;;;;4.50;53.22;100876.22;669497;29;773;-84
2023/12/04 00:47:07;;;;;;;4.70;3.70;;;;;;;4.47;53.12;100878.66;668803;29;1697;-84
2023/12/04 00:47:28;;;;;;;4.80;3.83;;;;;;;4.51;53.31;100884.88;671754;29;989;-85
2023/12/04 00:47:50;;;;;;;5.32;4.00;;;;;;;4.49;53.47;100883.94;671769;29;1576;-84
2023/12/04 00:48:11;;;;;;;6.00;4.50;;;;;;;4.46;53.65;100878.56;671907;29;1297;-84
2023/12/04 00:48:32;;;;;;;7.50;4.50;;;;;;;4.47;53.34;100882.97;669179;29;1226;-84
2023/12/04 00:48:52;;;;;;;6.57;4.35;;;;;;;4.48;53.28;100879.56;667185;29;1558;-85
2023/12/04 00:49:13;;;;;;;7.15;3.90;;;;;;;4.44;53.44;100875.94;669566;29;1331;-85
2023/12/04 00:49:33;;;;;;;6.20;4.07;;;;;;;4.48;53.77;100876.97;669359;29;1319;-84
2023/12/04 00:49:54;;;;;;;8.60;4.57;;;;;;;4.44;53.53;100880.19;669154;29;1495;-85
2023/12/04 00:50:15;;;;;;;9.32;5.07;;;;;;;4.43;53.37;100883.59;668810;29;1159;-85
2023/12/04 00:50:35;;;;;;;11.35;4.82;;;;;;;4.45;53.57;100888.03;668110;29;1633;-85
2023/12/04 00:50:57;;;;;;;9.25;4.40;;;;;;;4.42;53.27;100880.09;669395;29;1658;-84
2023/12/04 00:51:18;;;;;;;7.13;4.15;;;;;;;4.48;53.83;100879.56;672067;29;973;-84
2023/12/04 00:51:39;;;;;;;5.65;4.35;;;;;;;4.52;53.37;100884.06;672142;29;765;-85
2023/12/04 00:51:59;;;;;;;5.38;4.05;;;;;;;4.43;53.62;100883.59;673205;29;1502;-84
2023/12/04 00:52:20;;;;;;;7.57;4.25;;;;;;;4.44;53.66;100877.59;672386;29;1173;-84
2023/12/04 00:52:41;;;;;;;7.27;4.10;;;;;;;4.40;53.64;100871.38;671918;29;1171;-85
2023/12/04 00:53:01;;;;;;;9.25;4.50;;;;;;;4.44;53.62;100881.09;670660;29;1761;-85
2023/12/04 00:53:22;;;;;;;7.40;4.13;;;;;;;4.46;53.76;100886.31;669171;29;1230;-85
2023/12/04 00:53:43;;;;;;;14.05;4.45;;;;;;;4.43;53.79;100879.31;671967;29;1905;-84
2023/12/04 00:54:04;;;;;;;14.20;4.30;;;;;;;4.47;53.33;100878.66;674308;29;1470;-85
2023/12/04 00:54:25;;;;;;;15.35;4.22;;;;;;;4.49;53.40;100883.94;673821;29;1355;-84
2023/12/04 00:54:45;;;;;;;7.28;3.97;;;;;;;4.49;53.78;100877.03;669339;29;1693;-85
2023/12/04 00:55:06;;;;;;;7.33;4.17;;;;;;;4.57;53.78;100881.75;668506;29;1549;-85
2023/12/04 00:55:27;;;;;;;7.68;4.78;;;;;;;4.58;53.71;100881.84;667099;29;1183;-84
2023/12/04 00:59:50;;;;;;;8.80;4.70;;;;;;;4.61;53.70;100866.47;680168;29;1550;-85
2023/12/04 01:00:14;;;;;;;8.57;4.10;;;;;;;4.54;53.68;100866.94;677651;29;1328;-86
2023/12/04 01:00:34;;;;;;;8.52;3.88;;;;;;;4.57;53.60;100861.97;674955;29;964;-85
2023/12/04 01:00:56;;;;;;;7.75;3.70;;;;;;;4.49;53.86;100856.38;671919;29;1483;-85
2023/12/04 01:01:17;;;;;;;4.15;3.30;;;;;;;4.47;53.67;100870.03;670239;29;1262;-85
2023/12/04 01:01:38;;;;;;;4.00;3.35;;;;;;;4.43;53.53;100858.66;670462;29;817;-85
2023/12/04 01:01:58;;;;;;;4.13;3.73;;;;;;;4.48;53.61;100862.34;667615;29;1673;-85
2023/12/04 01:02:19;;;;;;;4.33;3.93;;;;;;;4.52;53.58;100866.00;672392;29;1282;-85
2023/12/04 01:02:40;;;;;;;4.78;4.15;;;;;;;4.49;53.96;100855.50;673026;29;829;-84
2023/12/04 01:03:01;;;;;;;6.45;4.18;;;;;;;4.57;53.85;100861.06;672722;29;1479;-85
2023/12/04 01:03:22;;;;;;;7.10;4.40;;;;;;;4.51;53.50;100862.53;671539;29;1416;-86
2023/12/04 01:03:43;;;;;;;7.03;4.30;;;;;;;4.45;53.67;100856.13;672758;29;1447;-86
2023/12/04 01:04:04;;;;;;;5.63;4.10;;;;;;;4.42;53.74;100862.00;672425;29;1600;-85
2023/12/04 01:04:25;;;;;;;5.43;3.78;;;;;;;4.43;53.74;100863.81;672564;29;1415;-85
2023/12/04 01:04:45;;;;;;;5.30;3.90;;;;;;;4.45;53.93;100858.72;670188;29;1263;-85
2023/12/04 01:05:06;;;;;;;6.95;4.20;;;;;;;4.43;53.57;100858.66;667355;29;1603;-85
2023/12/04 01:05:27;;;;;;;7.13;4.43;;;;;;;4.41;53.97;100854.19;667625;29;1307;-85
2023/12/04 01:05:48;;;;;;;7.30;4.05;;;;;;;4.37;53.67;100848.84;670307;29;1387;-85
2023/12/04 01:06:20;;;;;;;7.05;4.25;;;;;;;4.46;53.94;100857.91;670003;29;1528;-85
2023/12/04 01:06:41;;;;;;;8.00;4.64;;;;;;;4.41;53.91;100851.59;670155;29;1250;-86
2023/12/04 01:07:21;;;;;;;8.25;4.38;;;;;;;4.48;54.00;100856.31;674837;29;1501;-85
2023/12/04 01:07:44;;;;;;;7.32;4.55;;;;;;;4.42;53.87;100851.66;672015;29;949;-85
2023/12/04 01:08:05;;;;;;;5.88;4.40;;;;;;;4.46;53.83;100852.72;671907;29;1433;-85
2023/12/04 01:08:26;;;;;;;6.35;4.90;;;;;;;4.49;54.09;100863.25;665767;29;1304;-86
2023/12/04 01:08:46;;;;;;;5.05;4.30;;;;;;;4.42;54.16;100846.50;668849;29;1349;-85
2023/12/04 01:09:07;;;;;;;6.30;4.80;;;;;;;4.48;54.02;100857.19;670047;29;1574;-85
2023/12/04 01:09:31;;;;;;;5.47;4.33;;;;;;;4.45;54.18;100843.19;670224;29;1041;-85
2023/12/04 01:09:51;;;;;;;5.68;4.28;;;;;;;4.42;54.04;100849.09;670630;29;1677;-85
2023/12/04 01:10:12;;;;;;;5.72;4.45;;;;;;;4.46;53.81;100857.91;669237;29;1107;-85
2023/12/04 01:10:33;;;;;;;6.40;4.60;;;;;;;4.40;53.92;100849.84;670465;29;969;-85
2023/12/04 01:10:53;;;;;;;8.80;4.97;;;;;;;4.44;54.06;100854.34;669207;29;1578;-85
2023/12/04 01:11:15;;;;;;;8.98;5.03;;;;;;;4.44;53.71;100851.75;671041;29;1624;-85
2023/12/04 01:11:36;;;;;;;8.43;5.10;;;;;;;4.45;54.22;100850.94;670131;29;1191;-85
2023/12/04 01:11:58;;;;;;;7.10;4.72;;;;;;;4.47;54.12;100851.94;667392;29;1508;-85
2023/12/04 01:12:18;;;;;;;6.57;4.50;;;;;;;4.50;53.88;100844.34;672648;29;1085;-85
2023/12/04 01:12:39;;;;;;;7.10;4.30;;;;;;;4.47;54.13;100854.53;667773;29;773;-84
2023/12/04 01:13:00;;;;;;;6.97;3.95;;;;;;;4.48;54.18;100848.56;672528;29;1607;-85
2023/12/04 01:13:21;;;;;;;6.43;3.78;;;;;;;4.50;54.14;100859.84;670007;29;1586;-85
2023/12/04 01:13:41;;;;;;;6.45;4.10;;;;;;;4.52;54.07;100855.66;673590;29;1964;-85
2023/12/04 01:14:02;;;;;;;6.10;4.40;;;;;;;4.49;54.24;100848.63;672554;29;1483;-85
2023/12/04 01:14:23;;;;;;;5.57;4.37;;;;;;;4.52;54.19;100845.31;672732;29;1180;-85
2023/12/04 01:14:44;;;;;;;5.47;4.18;;;;;;;4.58;54.27;100858.56;675389;29;1205;-85
2023/12/04 01:15:05;;;;;;;5.60;4.20;;;;;;;4.56;54.24;100852.44;675133;29;1619;-85
2023/12/04 01:15:26;;;;;;;6.20;4.38;;;;;;;4.51;54.10;100849.59;674714;29;1108;-85
2023/12/04 01:15:48;;;;;;;6.45;4.55;;;;;;;4.59;53.98;100850.00;677887;29;1180;-85
2023/12/04 01:16:09;;;;;;;6.40;4.47;;;;;;;4.60;53.98;100853.50;672693;29;1510;-85
2023/12/04 01:16:30;;;;;;;5.82;4.20;;;;;;;4.57;54.11;100846.47;670052;29;1095;-85
2023/12/04 01:16:51;;;;;;;6.88;4.40;;;;;;;4.58;53.89;100853.41;671520;29;1653;-85
2023/12/04 01:17:12;;;;;;;7.40;4.30;;;;;;;4.57;53.89;100849.03;675064;29;1259;-85
2023/12/04 01:17:32;;;;;;;7.60;4.50;;;;;;;4.50;54.07;100836.59;672642;29;957;-85
2023/12/04 01:17:53;;;;;;;6.40;4.40;;;;;;;4.56;53.81;100849.84;670268;29;1594;-86
2023/12/04 01:18:14;;;;;;;5.63;4.60;;;;;;;4.49;54.21;100838.28;672814;29;1055;-85
2023/12/04 01:18:35;;;;;;;6.90;4.80;;;;;;;4.54;54.43;100845.41;675487;29;1154;-85
2023/12/04 01:18:56;;;;;;;6.70;4.80;;;;;;;4.63;54.25;100854.56;670955;29;1483;-85
2023/12/04 01:19:17;;;;;;;7.05;4.80;;;;;;;4.59;54.31;100849.13;670143;29;1399;-85
2023/12/04 01:19:37;;;;;;;7.33;4.53;;;;;;;4.59;54.15;100844.84;670381;29;1007;-86
2023/12/04 01:19:58;;;;;;;8.15;4.60;;;;;;;4.59;54.28;100843.97;669988;29;1471;-85
2023/12/04 01:20:19;;;;;;;8.65;4.57;;;;;;;4.60;54.22;100838.84;672670;29;1286;-85
2023/12/04 01:20:41;;;;;;;8.30;4.97;;;;;;;4.59;53.93;100836.22;665133;29;1318;-85
2023/12/04 01:21:02;;;;;;;6.82;4.70;;;;;;;4.58;54.08;100835.31;667375;29;1847;-85
2023/12/04 01:21:23;;;;;;;6.50;4.90;;;;;;;4.59;54.21;100836.22;670075;29;1425;-85
2023/12/04 01:21:43;;;;;;;6.40;4.65;;;;;;;4.58;54.15;100832.72;669710;29;1595;-86
2023/12/04 01:22:05;;;;;;;6.80;4.70;;;;;;;4.61;54.28;100840.63;669907;29;1546;-85
2023/12/04 01:22:26;;;;;;;6.53;4.60;;;;;;;4.63;54.39;100836.47;669806;29;1308;-85
2023/12/04 01:25:25;;;;;;;7.80;4.28;;;;;;;4.72;54.28;100846.38;679251;29;693;-85
2023/12/04 01:25:47;;;;;;;9.02;5.40;;;;;;;4.65;54.25;100833.94;677040;29;832;-84
2023/12/04 01:26:10;;;;;;;8.60;5.40;;;;;;;4.64;54.26;100827.88;670267;29;1611;-85
2023/12/04 01:26:32;;;;;;;6.20;4.85;;;;;;;4.62;54.25;100829.50;670298;29;1409;-85
2023/12/04 01:26:53;;;;;;;6.18;4.85;;;;;;;4.61;54.30;100832.88;669865;29;1681;-85
2023/12/04 01:27:14;;;;;;;6.90;4.95;;;;;;;4.65;54.02;100834.84;669824;29;1180;-84
2023/12/04 01:27:37;;;;;;;7.38;5.30;;;;;;;4.65;54.22;100829.66;673975;29;1157;-85
2023/12/04 01:27:58;;;;;;;8.02;5.20;;;;;;;4.69;54.35;100829.81;664912;29;1494;-85
2023/12/04 01:28:18;;;;;;;7.88;4.80;;;;;;;4.63;54.40;100823.53;667743;29;1229;-85
2023/12/04 01:28:39;;;;;;;7.38;4.30;;;;;;;4.67;54.49;100841.78;667737;29;761;-84
2023/12/04 01:29:00;;;;;;;7.10;4.60;;;;;;;4.61;54.50;100835.47;670888;29;1541;-85
2023/12/04 01:29:20;;;;;;;7.22;4.82;;;;;;;4.64;54.11;100824.41;669872;29;1273;-85
2023/12/04 01:29:41;;;;;;;7.78;5.28;;;;;;;4.68;54.37;100831.53;670613;29;1370;-84
2023/12/04 01:30:02;;;;;;;6.57;5.00;;;;;;;4.67;54.29;100823.69;671117;29;1655;-85
2023/12/04 01:30:23;;;;;;;7.95;5.40;;;;;;;4.69;54.31;100827.22;672630;29;1215;-85
2023/12/04 01:30:43;;;;;;;7.93;5.00;;;;;;;4.72;54.50;100837.75;670745;29;1155;-84
2023/12/04 01:31:04;;;;;;;9.60;5.70;;;;;;;4.73;54.35;100845.56;675339;29;1559;-85
2023/12/04 01:31:25;;;;;;;8.35;5.10;;;;;;;4.68;54.50;100830.63;675027;29;1461;-85
2023/12/04 01:31:46;;;;;;;7.60;4.77;;;;;;;4.65;54.53;100827.06;668117;29;1108;-85
2023/12/04 01:32:06;;;;;;;7.85;4.97;;;;;;;4.68;54.15;100834.09;672545;29;1443;-85
2023/12/04 01:32:27;;;;;;;8.30;5.07;;;;;;;4.73;54.20;100831.78;670195;29;1076;-85
2023/12/04 01:32:48;;;;;;;8.43;5.13;;;;;;;4.72;54.41;100837.75;673215;29;1344;-85
2023/12/04 01:33:09;;;;;;;6.45;4.40;;;;;;;4.65;54.42;100828.75;671030;29;1614;-85
2023/12/04 01:33:30;;;;;;;6.05;4.45;;;;;;;4.69;54.50;100829.81;672793;29;1045;-84
2023/12/04 01:33:50;;;;;;;7.63;5.23;;;;;;;4.73;54.21;100836.94;671092;29;1915;-85
2023/12/04 01:34:11;;;;;;;8.50;5.20;;;;;;;4.76;54.57;100834.50;667637;29;1497;-85
2023/12/04 01:34:31;;;;;;;11.75;5.60;;;;;;;4.69;54.25;100825.53;670168;29;1316;-85
2023/12/04 01:34:52;;;;;;;9.67;4.83;;;;;;;4.65;54.59;100814.16;672823;29;1593;-84
2023/12/04 01:35:13;;;;;;;9.80;5.10;;;;;;;4.70;54.40;100818.66;675323;29;964;-85
2023/12/04 01:35:34;;;;;;;6.90;4.50;;;;;;;4.76;54.33;100826.75;675173;29;1404;-85
2023/12/04 01:35:54;;;;;;;9.40;4.60;;;;;;;4.69;54.58;100824.63;670074;29;1648;-85
2023/12/04 01:36:15;;;;;;;9.82;4.75;;;;;;;4.76;54.38;100832.81;669804;29;1208;-85
2023/12/04 01:36:39;;;;;;;9.83;5.03;;;;;;;4.73;54.24;100827.47;667637;29;1271;-85
2023/12/04 01:37:00;;;;;;;8.68;4.95;;;;;;;4.77;54.35;100828.53;665872;29;1599;-85
2023/12/04 01:37:20;;;;;;;8.03;4.63;;;;;;;4.77;54.54;100821.66;673530;29;1165;-84
2023/12/04 01:37:41;;;;;;;7.75;4.63;;;;;;;4.79;54.47;100832.09;670075;29;1252;-84
2023/12/04 01:38:01;;;;;;;7.63;4.70;;;;;;;4.74;54.52;100818.94;667286;29;1860;-85
2023/12/04 01:38:22;;;;;;;7.33;5.10;;;;;;;4.79;54.32;100825.22;669791;29;1206;-85
2023/12/04 01:38:43;;;;;;;7.88;5.07;;;;;;;4.78;54.52;100817.38;672853;29;1148;-85
2023/12/04 01:39:03;;;;;;;9.00;5.40;;;;;;;4.84;54.33;100825.44;672393;29;1594;-85
2023/12/04 01:39:24;;;;;;;9.57;5.03;;;;;;;4.85;54.53;100823.75;672863;29;1211;-85
2023/12/04 01:39:44;;;;;;;8.40;4.97;;;;;;;4.83;54.39;100820.22;672834;29;780;-84
2023/12/04 01:40:06;;;;;;;9.55;4.80;;;;;;;4.83;54.31;100813.34;669999;29;1613;-85
2023/12/04 01:40:27;;;;;;;9.50;5.30;;;;;;;4.81;54.40;100803.72;667962;29;1005;-86
2023/12/04 01:40:48;;;;;;;8.90;5.33;;;;;;;4.81;54.49;100816.63;670124;29;926;-85
2023/12/04 01:41:09;;;;;;;9.20;5.28;;;;;;;4.80;54.18;100808.00;670616;29;1514;-85
2023/12/04 01:41:29;;;;;;;10.87;5.40;;;;;;;4.78;54.16;100818.25;672630;29;1687;-85
2023/12/04 01:41:50;;;;;;;11.23;5.68;;;;;;;4.84;54.09;100815.09;675439;29;793;-84
2023/12/04 01:42:11;;;;;;;9.48;5.63;;;;;;;4.81;54.32;100812.38;672738;29;1833;-85
2023/12/04 01:42:32;;;;;;;7.77;5.50;;;;;;;4.79;54.36;100806.25;671704;29;925;-85
2023/12/04 01:42:53;;;;;;;7.36;5.20;;;;;;;4.79;54.24;100807.13;672736;29;1612;-85
2023/12/04 01:43:14;;;;;;;6.23;4.90;;;;;;;4.86;54.47;100810.94;672938;29;1055;-85
2023/12/04 01:43:35;;;;;;;5.38;4.53;;;;;;;4.84;54.74;100812.53;673923;29;1320;-85
2023/12/04 01:43:55;;;;;;;5.97;4.63;;;;;;;4.87;54.60;100819.56;671880;29;1604;-85
2023/12/04 01:44:17;;;;;;;6.20;4.65;;;;;;;4.88;54.68;100811.88;669856;29;1270;-85
2023/12/04 01:44:38;;;;;;;8.27;5.10;;;;;;;4.86;54.46;100807.44;667686;29;856;-85
2023/12/04 01:44:59;;;;;;;7.82;5.20;;;;;;;4.88;54.73;100819.63;669286;29;1507;-84
2023/12/04 01:45:20;;;;;;;8.85;5.60;;;;;;;4.87;54.34;100809.22;675401;29;1393;-85
2023/12/04 01:45:41;;;;;;;8.88;5.35;;;;;;;4.83;54.47;100803.00;670107;29;1174;-84
2023/12/04 01:46:02;;;;;;;13.73;5.70;;;;;;;4.83;54.71;100808.16;670008;29;1503;-85
2023/12/04 01:46:23;;;;;;;13.10;5.50;;;;;;;4.82;54.43;100810.66;670249;29;883;-85
2023/12/04 01:46:44;;;;;;;11.80;5.22;;;;;;;4.86;54.39;100817.78;672729;29;1415;-85
2023/12/04 01:47:07;;;;;;;6.43;4.90;;;;;;;4.80;54.44;100802.84;674128;29;1487;-85
2023/12/04 01:47:28;;;;;;;9.52;4.75;;;;;;;4.78;54.53;100804.44;672991;29;1282;-85
2023/12/04 01:47:49;;;;;;;12.30;5.00;;;;;;;4.79;54.55;100803.66;670395;29;1255;-85
2023/12/04 01:48:13;;;;;;;8.73;4.80;;;;;;;4.85;54.31;100811.72;667572;29;1500;-84
2023/12/04 01:48:34;;;;;;;10.80;5.07;;;;;;;4.82;54.66;100805.47;670153;29;1190;-85
2023/12/04 01:48:55;;;;;;;8.93;5.20;;;;;;;4.79;54.45;100804.53;672013;29;1531;-84
2023/12/04 01:49:16;;;;;;;10.30;5.45;;;;;;;4.82;54.63;100813.25;670121;29;1155;-85
2023/12/04 01:49:36;;;;;;;10.00;5.70;;;;;;;4.76;54.60;100800.88;670011;29;1222;-85
2023/12/04 01:49:57;;;;;;;10.38;5.50;;;;;;;4.77;54.86;100803.56;672683;29;1498;-84
2023/12/04 01:50:18;;;;;;;8.80;5.55;;;;;;;4.75;54.75;100807.78;672612;29;1295;-85
2023/12/04 01:50:39;;;;;;;8.30;5.60;;;;;;;4.79;54.82;100806.25;671322;29;730;-85
2023/12/04 01:51:06;;;;;;;8.48;5.82;;;;;;;4.76;54.71;100803.47;672473;29;1550;-85